Terminal Aerodrome Forecast
Issued by NWS Blacksburg, VA

Home | Current Version | Previous Version | Text Only | Print | Product List | Glossary On
Versions: 1 2 3 4 5 6 7 8 9 10 11 12 13 14 15 16 17 18 19 20 21 22
000
FTUS41 KRNK 191724
TAFBLF
TAF
KBLF 191724Z 1918/2018 24005KT P6SM SCT060 BKN250
     FM200200 16004KT P6SM VCSH OVC060
     FM200800 17007KT 4SM -RA OVC030
     FM201200 19005KT 2SM -RA OVC003 WS020/21035KT
     FM201500 21008KT 5SM -RA SCT005 OVC015=

USA.gov is the U.S. government's official web portal to all federal, state and local government web resources and services.